sensor_id;sensor_type;location;lat;lon;timestamp;pressure;altitude;pressure_sealevel;temperature;humidity
58239;BME280;44037;55.638;37.356;2023-02-18T00:00:17;99187.19;;;-8.99;82.26
58239;BME280;44037;55.638;37.356;2023-02-18T00:02:45;99183.00;;;-8.99;82.24
58239;BME280;44037;55.638;37.356;2023-02-18T00:05:13;99180.41;;;-9.00;82.10
58239;BME280;44037;55.638;37.356;2023-02-18T00:07:40;99183.91;;;-8.98;82.37
58239;BME280;44037;55.638;37.356;2023-02-18T00:10:11;99180.66;;;-8.97;82.26
58239;BME280;44037;55.638;37.356;2023-02-18T00:12:39;99187.03;;;-9.01;82.13
58239;BME280;44037;55.638;37.356;2023-02-18T00:15:08;99180.41;;;-9.00;82.24
58239;BME280;44037;55.638;37.356;2023-02-18T00:17:35;99181.16;;;-9.01;82.45
58239;BME280;44037;55.638;37.356;2023-02-18T00:20:03;99170.09;;;-9.03;82.01
58239;BME280;44037;55.638;37.356;2023-02-18T00:22:30;99166.47;;;-9.07;82.16
58239;BME280;44037;55.638;37.356;2023-02-18T00:24:57;99168.88;;;-9.08;82.11
58239;BME280;44037;55.638;37.356;2023-02-18T00:27:24;99163.59;;;-9.12;82.26
58239;BME280;44037;55.638;37.356;2023-02-18T00:29:52;99165.75;;;-9.16;82.08
58239;BME280;44037;55.638;37.356;2023-02-18T00:32:20;99163.09;;;-9.18;82.04
58239;BME280;44037;55.638;37.356;2023-02-18T00:34:48;99161.59;;;-9.16;81.99
58239;BME280;44037;55.638;37.356;2023-02-18T00:37:15;99151.47;;;-9.17;81.87
58239;BME280;44037;55.638;37.356;2023-02-18T00:39:42;99153.72;;;-9.20;81.90
58239;BME280;44037;55.638;37.356;2023-02-18T00:42:12;99153.72;;;-9.20;82.25
58239;BME280;44037;55.638;37.356;2023-02-18T00:44:39;99154.59;;;-9.20;81.82
58239;BME280;44037;55.638;37.356;2023-02-18T00:47:06;99145.19;;;-9.22;81.89
58239;BME280;44037;55.638;37.356;2023-02-18T00:49:34;99140.91;;;-9.23;81.58
58239;BME280;44037;55.638;37.356;2023-02-18T00:52:02;99141.66;;;-9.24;81.97
58239;BME280;44037;55.638;37.356;2023-02-18T00:54:29;99129.00;;;-9.26;81.96
58239;BME280;44037;55.638;37.356;2023-02-18T00:56:56;99123.00;;;-9.28;81.96
58239;BME280;44037;55.638;37.356;2023-02-18T00:59:23;99113.44;;;-9.32;81.67
58239;BME280;44037;55.638;37.356;2023-02-18T01:01:50;99106.72;;;-9.33;82.40
58239;BME280;44037;55.638;37.356;2023-02-18T01:04:17;99102.44;;;-9.34;82.24
58239;BME280;44037;55.638;37.356;2023-02-18T01:06:45;99098.03;;;-9.37;82.32
58239;BME280;44037;55.638;37.356;2023-02-18T01:09:13;99100.94;;;-9.43;82.04
58239;BME280;44037;55.638;37.356;2023-02-18T01:11:40;99091.28;;;-9.48;81.82
58239;BME280;44037;55.638;37.356;2023-02-18T01:14:07;99098.72;;;-9.50;81.96
58239;BME280;44037;55.638;37.356;2023-02-18T01:16:34;99088.44;;;-9.53;82.05
58239;BME280;44037;55.638;37.356;2023-02-18T01:19:01;99074.66;;;-9.58;81.29
58239;BME280;44037;55.638;37.356;2023-02-18T01:21:29;99074.41;;;-9.61;81.89
58239;BME280;44037;55.638;37.356;2023-02-18T01:23:57;99067.38;;;-9.65;81.69
58239;BME280;44037;55.638;37.356;2023-02-18T01:26:25;99056.34;;;-9.67;81.54
58239;BME280;44037;55.638;37.356;2023-02-18T01:28:52;99055.00;;;-9.74;81.44
58239;BME280;44037;55.638;37.356;2023-02-18T01:31:19;99053.13;;;-9.77;81.72
58239;BME280;44037;55.638;37.356;2023-02-18T01:33:46;99046.34;;;-9.78;81.97
58239;BME280;44037;55.638;37.356;2023-02-18T01:36:13;99036.31;;;-9.78;82.13
58239;BME280;44037;55.638;37.356;2023-02-18T01:38:40;99036.31;;;-9.78;81.92
58239;BME280;44037;55.638;37.356;2023-02-18T01:41:09;99032.06;;;-9.79;81.73
58239;BME280;44037;55.638;37.356;2023-02-18T01:43:36;99033.34;;;-9.84;82.07
58239;BME280;44037;55.638;37.356;2023-02-18T01:46:14;99013.78;;;-9.88;81.77
58239;BME280;44037;55.638;37.356;2023-02-18T01:48:43;99014.03;;;-9.85;82.32
58239;BME280;44037;55.638;37.356;2023-02-18T01:51:14;99026.78;;;-9.82;82.34
58239;BME280;44037;55.638;37.356;2023-02-18T01:53:48;99010.38;;;-9.78;82.03
58239;BME280;44037;55.638;37.356;2023-02-18T01:56:23;99010.00;;;-9.73;82.56
58239;BME280;44037;55.638;37.356;2023-02-18T01:58:53;99002.94;;;-9.66;82.41
58239;BME280;44037;55.638;37.356;2023-02-18T02:01:21;98999.91;;;-9.62;82.51
58239;BME280;44037;55.638;37.356;2023-02-18T02:03:48;98994.41;;;-9.58;82.41
58239;BME280;44037;55.638;37.356;2023-02-18T02:06:20;98998.13;;;-9.53;82.48
58239;BME280;44037;55.638;37.356;2023-02-18T02:08:49;98990.94;;;-9.48;82.11
58239;BME280;44037;55.638;37.356;2023-02-18T02:11:26;98989.16;;;-9.39;82.49
58239;BME280;44037;55.638;37.356;2023-02-18T02:14:15;98989.22;;;-9.27;82.79
58239;BME280;44037;55.638;37.356;2023-02-18T02:16:52;98988.06;;;-9.20;82.37
58239;BME280;44037;55.638;37.356;2023-02-18T02:20:00;98984.13;;;-9.17;82.24
58239;BME280;44037;55.638;37.356;2023-02-18T02:26:38;98979.63;;;-8.99;82.45
58239;BME280;44037;55.638;37.356;2023-02-18T02:29:47;98972.25;;;-8.97;81.79
58239;BME280;44037;55.638;37.356;2023-02-18T02:32:44;98961.78;;;-8.91;82.32
58239;BME280;44037;55.638;37.356;2023-02-18T02:35:22;98962.22;;;-8.85;82.31
58239;BME280;44037;55.638;37.356;2023-02-18T02:37:54;98951.75;;;-8.80;82.69
58239;BME280;44037;55.638;37.356;2023-02-18T02:40:29;98949.59;;;-8.75;82.38
58239;BME280;44037;55.638;37.356;2023-02-18T02:43:05;98951.56;;;-8.71;82.60
58239;BME280;44037;55.638;37.356;2023-02-18T02:45:47;98942.63;;;-8.67;82.61
58239;BME280;44037;55.638;37.356;2023-02-18T02:48:20;98936.31;;;-8.62;82.82
58239;BME280;44037;55.638;37.356;2023-02-18T02:50:54;98940.03;;;-8.57;83.04
58239;BME280;44037;55.638;37.356;2023-02-18T02:53:27;98930.19;;;-8.54;82.74
58239;BME280;44037;55.638;37.356;2023-02-18T02:55:56;98925.16;;;-8.54;82.82
58239;BME280;44037;55.638;37.356;2023-02-18T02:58:23;98919.94;;;-8.57;82.46
58239;BME280;44037;55.638;37.356;2023-02-18T03:01:14;98920.56;;;-8.59;82.49
58239;BME280;44037;55.638;37.356;2023-02-18T03:04:04;98916.44;;;-8.59;82.70
58239;BME280;44037;55.638;37.356;2023-02-18T03:06:52;98913.78;;;-8.60;82.77
58239;BME280;44037;55.638;37.356;2023-02-18T03:09:32;98919.16;;;-8.56;83.15
58239;BME280;44037;55.638;37.356;2023-02-18T03:12:10;98912.59;;;-8.54;82.86
58239;BME280;44037;55.638;37.356;2023-02-18T03:14:43;98902.03;;;-8.50;83.16
58239;BME280;44037;55.638;37.356;2023-02-18T03:17:20;98897.00;;;-8.50;82.99
58239;BME280;44037;55.638;37.356;2023-02-18T03:19:54;98893.03;;;-8.46;83.17
58239;BME280;44037;55.638;37.356;2023-02-18T03:22:28;98880.78;;;-8.41;83.15
58239;BME280;44037;55.638;37.356;2023-02-18T03:24:57;98889.22;;;-8.41;83.25
58239;BME280;44037;55.638;37.356;2023-02-18T03:27:28;98871.63;;;-8.41;83.08
58239;BME280;44037;55.638;37.356;2023-02-18T03:29:59;98871.72;;;-8.39;83.09
58239;BME280;44037;55.638;37.356;2023-02-18T03:32:28;98871.72;;;-8.39;83.43
58239;BME280;44037;55.638;37.356;2023-02-18T03:35:02;98865.09;;;-8.39;83.10
58239;BME280;44037;55.638;37.356;2023-02-18T03:37:34;98862.44;;;-8.40;83.14
58239;BME280;44037;55.638;37.356;2023-02-18T03:40:05;98857.41;;;-8.40;83.12
58239;BME280;44037;55.638;37.356;2023-02-18T03:42:33;98845.63;;;-8.41;83.28
58239;BME280;44037;55.638;37.356;2023-02-18T03:45:00;98840.41;;;-8.44;83.00
58239;BME280;44037;55.638;37.356;2023-02-18T03:47:29;98841.16;;;-8.45;83.58
58239;BME280;44037;55.638;37.356;2023-02-18T03:49:56;98842.13;;;-8.43;82.92
58239;BME280;44037;55.638;37.356;2023-02-18T03:52:23;98822.81;;;-8.44;83.16
58239;BME280;44037;55.638;37.356;2023-02-18T03:54:52;98836.69;;;-8.50;82.88
58239;BME280;44037;55.638;37.356;2023-02-18T03:57:19;98823.91;;;-8.53;82.85
58239;BME280;44037;55.638;37.356;2023-02-18T03:59:46;98823.59;;;-8.57;82.68
58239;BME280;44037;55.638;37.356;2023-02-18T04:02:13;98825.69;;;-8.63;82.69
58239;BME280;44037;55.638;37.356;2023-02-18T04:04:40;98827.06;;;-8.67;82.64
58239;BME280;44037;55.638;37.356;2023-02-18T04:07:07;98821.84;;;-8.70;82.60
58239;BME280;44037;55.638;37.356;2023-02-18T04:09:34;98815.84;;;-8.72;82.88
58239;BME280;44037;55.638;37.356;2023-02-18T04:12:03;98792.25;;;-8.74;82.78
58239;BME280;44037;55.638;37.356;2023-02-18T04:14:30;98802.28;;;-8.74;82.87
58239;BME280;44037;55.638;37.356;2023-02-18T04:16:57;98808.06;;;-8.75;82.83
58239;BME280;44037;55.638;37.356;2023-02-18T04:19:26;98809.59;;;-8.77;82.98
58239;BME280;44037;55.638;37.356;2023-02-18T04:21:53;98799.56;;;-8.77;83.10
58239;BME280;44037;55.638;37.356;2023-02-18T04:24:20;98819.63;;;-8.77;82.68
58239;BME280;44037;55.638;37.356;2023-02-18T04:26:47;98811.34;;;-8.76;82.73
58239;BME280;44037;55.638;37.356;2023-02-18T04:29:15;98808.06;;;-8.75;82.99
58239;BME280;44037;55.638;37.356;2023-02-18T04:31:42;98808.06;;;-8.75;82.84
58239;BME280;44037;55.638;37.356;2023-02-18T04:34:09;98807.31;;;-8.74;82.71
58239;BME280;44037;55.638;37.356;2023-02-18T04:36:36;98799.88;;;-8.73;83.38
58239;BME280;44037;55.638;37.356;2023-02-18T04:39:04;98802.28;;;-8.74;82.67
58239;BME280;44037;55.638;37.356;2023-02-18T04:41:31;98802.19;;;-8.76;82.92
58239;BME280;44037;55.638;37.356;2023-02-18T04:43:58;98808.06;;;-8.75;82.85
58239;BME280;44037;55.638;37.356;2023-02-18T04:46:27;98789.50;;;-8.77;82.99
58239;BME280;44037;55.638;37.356;2023-02-18T04:48:54;98798.56;;;-8.80;82.67
58239;BME280;44037;55.638;37.356;2023-02-18T04:51:21;98784.47;;;-8.77;82.88
58239;BME280;44037;55.638;37.356;2023-02-18T04:53:48;98781.22;;;-8.76;82.90
58239;BME280;44037;55.638;37.356;2023-02-18T04:56:16;98784.47;;;-8.77;82.93
58239;BME280;44037;55.638;37.356;2023-02-18T04:58:43;98775.41;;;-8.75;83.24
58239;BME280;44037;55.638;37.356;2023-02-18T05:01:10;98771.38;;;-8.73;83.01
58239;BME280;44037;55.638;37.356;2023-02-18T05:03:38;98765.59;;;-8.72;83.21
58239;BME280;44037;55.638;37.356;2023-02-18T05:06:06;98773.31;;;-8.69;83.58
58239;BME280;44037;55.638;37.356;2023-02-18T05:08:33;98762.75;;;-8.65;83.40
58239;BME280;44037;55.638;37.356;2023-02-18T05:11:04;98751.94;;;-8.64;83.38
58239;BME280;44037;55.638;37.356;2023-02-18T05:13:32;98744.41;;;-8.64;82.98
58239;BME280;44037;55.638;37.356;2023-02-18T05:15:59;98742.78;;;-8.63;83.18
58239;BME280;44037;55.638;37.356;2023-02-18T05:18:26;98745.47;;;-8.60;83.12
58239;BME280;44037;55.638;37.356;2023-02-18T05:20:54;98742.13;;;-8.61;83.48
58239;BME280;44037;55.638;37.356;2023-02-18T05:23:21;98740.13;;;-8.65;82.72
58239;BME280;44037;55.638;37.356;2023-02-18T05:25:50;98727.56;;;-8.65;83.17
58239;BME280;44037;55.638;37.356;2023-02-18T05:28:17;98731.53;;;-8.57;83.48
58239;BME280;44037;55.638;37.356;2023-02-18T05:30:44;98729.19;;;-8.54;83.07
58239;BME280;44037;55.638;37.356;2023-02-18T05:33:11;98717.13;;;-8.46;83.06
58239;BME280;44037;55.638;37.356;2023-02-18T05:35:38;98710.81;;;-8.41;83.27
58239;BME280;44037;55.638;37.356;2023-02-18T05:38:07;98696.72;;;-8.39;82.72
58239;BME280;44037;55.638;37.356;2023-02-18T05:40:34;98700.16;;;-8.37;82.94
58239;BME280;44037;55.638;37.356;2023-02-18T05:43:01;98685.22;;;-8.35;82.81
58239;BME280;44037;55.638;37.356;2023-02-18T05:45:28;98670.91;;;-8.36;82.89
58239;BME280;44037;55.638;37.356;2023-02-18T05:47:55;98693.75;;;-8.33;82.89
58239;BME280;44037;55.638;37.356;2023-02-18T05:50:22;98690.47;;;-8.32;82.28
58239;BME280;44037;55.638;37.356;2023-02-18T05:52:49;98689.78;;;-8.29;82.26
58239;BME280;44037;55.638;37.356;2023-02-18T05:55:18;98688.66;;;-8.21;82.30
58239;BME280;44037;55.638;37.356;2023-02-18T05:57:45;98676.53;;;-8.15;82.36
58239;BME280;44037;55.638;37.356;2023-02-18T06:00:13;98675.28;;;-8.08;82.05
58239;BME280;44037;55.638;37.356;2023-02-18T06:02:40;98674.63;;;-8.06;81.98
58239;BME280;44037;55.638;37.356;2023-02-18T06:05:08;98670.44;;;-8.05;81.99
58239;BME280;44037;55.638;37.356;2023-02-18T06:07:36;98664.56;;;-8.06;81.80
58239;BME280;44037;55.638;37.356;2023-02-18T06:10:04;98669.13;;;-8.00;81.63
58239;BME280;44037;55.638;37.356;2023-02-18T06:12:33;98663.63;;;-7.94;81.50
58239;BME280;44037;55.638;37.356;2023-02-18T06:15:00;98662.19;;;-7.91;81.46
58239;BME280;44037;55.638;37.356;2023-02-18T06:17:30;98654.16;;;-7.85;81.38
58239;BME280;44037;55.638;37.356;2023-02-18T06:19:57;98645.59;;;-7.75;81.23
58239;BME280;44037;55.638;37.356;2023-02-18T06:22:24;98654.31;;;-7.70;81.01
58239;BME280;44037;55.638;37.356;2023-02-18T06:24:51;98629.34;;;-7.67;80.52
58239;BME280;44037;55.638;37.356;2023-02-18T06:27:18;98636.13;;;-7.66;79.90
58239;BME280;44037;55.638;37.356;2023-02-18T06:29:46;98622.88;;;-7.63;80.05
58239;BME280;44037;55.638;37.356;2023-02-18T06:32:13;98630.03;;;-7.56;79.66
58239;BME280;44037;55.638;37.356;2023-02-18T06:34:40;98620.25;;;-7.51;79.45
58239;BME280;44037;55.638;37.356;2023-02-18T06:37:07;98622.09;;;-7.49;79.42
58239;BME280;44037;55.638;37.356;2023-02-18T06:39:34;98610.59;;;-7.45;79.25
58239;BME280;44037;55.638;37.356;2023-02-18T06:42:02;98617.00;;;-7.37;79.49
58239;BME280;44037;55.638;37.356;2023-02-18T06:44:29;98615.03;;;-7.28;79.13
58239;BME280;44037;55.638;37.356;2023-02-18T06:46:58;98599.16;;;-7.27;78.81
58239;BME280;44037;55.638;37.356;2023-02-18T06:49:25;98608.19;;;-7.17;78.80
58239;BME280;44037;55.638;37.356;2023-02-18T06:51:52;98603.63;;;-7.09;78.75
58239;BME280;44037;55.638;37.356;2023-02-18T06:54:20;98596.16;;;-7.07;78.16
58239;BME280;44037;55.638;37.356;2023-02-18T06:56:47;98576.19;;;-7.04;78.00
58239;BME280;44037;55.638;37.356;2023-02-18T06:59:14;98592.09;;;-7.05;78.18
58239;BME280;44037;55.638;37.356;2023-02-18T07:01:41;98587.59;;;-6.96;78.13
58239;BME280;44037;55.638;37.356;2023-02-18T07:04:09;98575.28;;;-6.91;77.70
58239;BME280;44037;55.638;37.356;2023-02-18T07:06:36;98570.22;;;-6.78;78.02
58239;BME280;44037;55.638;37.356;2023-02-18T07:09:04;98560.78;;;-6.67;77.09
58239;BME280;44037;55.638;37.356;2023-02-18T07:11:31;98556.47;;;-6.55;77.30
58239;BME280;44037;55.638;37.356;2023-02-18T07:13:58;98554.69;;;-6.42;76.80
58239;BME280;44037;55.638;37.356;2023-02-18T07:16:25;98550.09;;;-6.35;75.82
58239;BME280;44037;55.638;37.356;2023-02-18T07:18:52;98546.47;;;-6.25;75.65
58239;BME280;44037;55.638;37.356;2023-02-18T07:21:23;98542.91;;;-6.13;75.40
58239;BME280;44037;55.638;37.356;2023-02-18T07:23:50;98536.72;;;-6.04;74.78
58239;BME280;44037;55.638;37.356;2023-02-18T07:26:17;98528.34;;;-5.88;75.35
58239;BME280;44037;55.638;37.356;2023-02-18T07:28:44;98534.75;;;-5.78;74.66
58239;BME280;44037;55.638;37.356;2023-02-18T07:31:11;98531.72;;;-5.72;74.02
58239;BME280;44037;55.638;37.356;2023-02-18T07:33:38;98518.06;;;-5.76;73.83
58239;BME280;44037;55.638;37.356;2023-02-18T07:36:06;98511.00;;;-5.66;73.04
58239;BME280;44037;55.638;37.356;2023-02-18T07:38:35;98516.63;;;-5.56;73.41
58239;BME280;44037;55.638;37.356;2023-02-18T07:41:02;98509.31;;;-5.51;73.63
58239;BME280;44037;55.638;37.356;2023-02-18T07:43:29;98501.31;;;-5.59;73.36
58239;BME280;44037;55.638;37.356;2023-02-18T07:45:56;98495.97;;;-5.65;73.27
58239;BME280;44037;55.638;37.356;2023-02-18T07:48:23;98481.88;;;-5.76;72.18
58239;BME280;44037;55.638;37.356;2023-02-18T07:50:50;98472.59;;;-5.92;72.17
58239;BME280;44037;55.638;37.356;2023-02-18T07:53:17;98473.75;;;-6.02;71.84
58239;BME280;44037;55.638;37.356;2023-02-18T07:55:46;98465.06;;;-6.07;72.28
58239;BME280;44037;55.638;37.356;2023-02-18T07:58:16;98460.47;;;-6.14;72.04
58239;BME280;44037;55.638;37.356;2023-02-18T08:00:43;98483.16;;;-6.14;72.39
58239;BME280;44037;55.638;37.356;2023-02-18T08:03:12;98476.88;;;-6.06;72.65
58239;BME280;44037;55.638;37.356;2023-02-18T08:05:39;98463.19;;;-5.95;73.07
58239;BME280;44037;55.638;37.356;2023-02-18T08:08:06;98461.88;;;-5.88;72.90
58239;BME280;44037;55.638;37.356;2023-02-18T08:10:33;98457.25;;;-5.80;72.88
58239;BME280;44037;55.638;37.356;2023-02-18T08:13:02;98462.13;;;-5.68;72.99
58239;BME280;44037;55.638;37.356;2023-02-18T08:15:29;98458.88;;;-5.34;72.57
58239;BME280;44037;55.638;37.356;2023-02-18T08:17:56;98459.13;;;-5.13;72.22
58239;BME280;44037;55.638;37.356;2023-02-18T08:20:23;98450.53;;;-4.84;72.11
58239;BME280;44037;55.638;37.356;2023-02-18T08:22:50;98451.59;;;-4.62;71.15
58239;BME280;44037;55.638;37.356;2023-02-18T08:25:17;98444.47;;;-4.53;70.43
58239;BME280;44037;55.638;37.356;2023-02-18T08:27:44;98444.34;;;-4.56;69.64
58239;BME280;44037;55.638;37.356;2023-02-18T08:30:13;98438.34;;;-4.58;68.81
58239;BME280;44037;55.638;37.356;2023-02-18T08:32:40;98429.72;;;-4.61;68.37
58239;BME280;44037;55.638;37.356;2023-02-18T08:35:10;98429.34;;;-4.69;67.97
58239;BME280;44037;55.638;37.356;2023-02-18T08:37:37;98424.97;;;-4.72;68.63
58239;BME280;44037;55.638;37.356;2023-02-18T08:40:05;98425.09;;;-4.70;68.65
58239;BME280;44037;55.638;37.356;2023-02-18T08:42:32;98406.09;;;-4.62;68.56
58239;BME280;44037;55.638;37.356;2023-02-18T08:45:00;98411.94;;;-4.63;68.96
58239;BME280;44037;55.638;37.356;2023-02-18T08:47:30;98409.34;;;-4.65;67.87
58239;BME280;44037;55.638;37.356;2023-02-18T08:49:57;98395.53;;;-4.71;68.26
58239;BME280;44037;55.638;37.356;2023-02-18T08:52:25;98394.09;;;-4.66;67.73
58239;BME280;44037;55.638;37.356;2023-02-18T08:54:52;98382.56;;;-4.61;67.86
58239;BME280;44037;55.638;37.356;2023-02-18T08:57:19;98384.16;;;-4.45;67.51
58239;BME280;44037;55.638;37.356;2023-02-18T08:59:46;98380.41;;;-4.35;67.29
58239;BME280;44037;55.638;37.356;2023-02-18T09:02:13;98381.81;;;-4.24;68.16
58239;BME280;44037;55.638;37.356;2023-02-18T09:04:42;98383.31;;;-4.09;67.67
58239;BME280;44037;55.638;37.356;2023-02-18T09:07:09;98374.13;;;-3.89;66.76
58239;BME280;44037;55.638;37.356;2023-02-18T09:09:36;98363.44;;;-3.64;66.68
58239;BME280;44037;55.638;37.356;2023-02-18T09:12:05;98349.69;;;-3.51;65.76
58239;BME280;44037;55.638;37.356;2023-02-18T09:14:32;98344.94;;;-3.24;65.36
58239;BME280;44037;55.638;37.356;2023-02-18T09:16:59;98346.59;;;-3.04;66.35
58239;BME280;44037;55.638;37.356;2023-02-18T09:19:26;98336.91;;;-2.94;66.08
58239;BME280;44037;55.638;37.356;2023-02-18T09:21:55;98330.16;;;-2.93;64.39
58239;BME280;44037;55.638;37.356;2023-02-18T09:24:22;98320.44;;;-3.03;63.45
58239;BME280;44037;55.638;37.356;2023-02-18T09:26:50;98313.88;;;-3.19;63.52
58239;BME280;44037;55.638;37.356;2023-02-18T09:29:18;98296.63;;;-3.28;64.19
58239;BME280;44037;55.638;37.356;2023-02-18T09:31:45;98304.00;;;-3.52;63.99
58239;BME280;44037;55.638;37.356;2023-02-18T09:34:12;98299.25;;;-3.66;64.52
58239;BME280;44037;55.638;37.356;2023-02-18T09:36:39;98295.47;;;-3.74;65.28
58239;BME280;44037;55.638;37.356;2023-02-18T09:39:08;98292.19;;;-3.91;65.14
58239;BME280;44037;55.638;37.356;2023-02-18T09:41:41;98281.59;;;-4.02;65.30
58239;BME280;44037;55.638;37.356;2023-02-18T09:44:13;98281.81;;;-4.16;65.47
58239;BME280;44037;55.638;37.356;2023-02-18T09:46:47;98280.38;;;-4.10;65.83
58239;BME280;44037;55.638;37.356;2023-02-18T09:49:16;98267.38;;;-4.18;65.76
58239;BME280;44037;55.638;37.356;2023-02-18T09:51:45;98269.13;;;-4.17;66.27
58239;BME280;44037;55.638;37.356;2023-02-18T09:54:16;98261.97;;;-4.26;66.71
58239;BME280;44037;55.638;37.356;2023-02-18T09:56:44;98260.47;;;-4.22;67.21
58239;BME280;44037;55.638;37.356;2023-02-18T09:59:14;98249.47;;;-4.23;67.12
58239;BME280;44037;55.638;37.356;2023-02-18T10:01:42;98250.78;;;-4.31;67.38
58239;BME280;44037;55.638;37.356;2023-02-18T10:04:13;98234.16;;;-4.26;67.43
58239;BME280;44037;55.638;37.356;2023-02-18T10:06:43;98234.28;;;-4.23;67.50
58239;BME280;44037;55.638;37.356;2023-02-18T10:09:18;98235.63;;;-4.31;68.06
58239;BME280;44037;55.638;37.356;2023-02-18T10:11:49;98231.94;;;-4.38;67.93
58239;BME280;44037;55.638;37.356;2023-02-18T10:14:17;98227.88;;;-4.34;67.93
58239;BME280;44037;55.638;37.356;2023-02-18T10:16:46;98215.38;;;-4.31;67.96
58239;BME280;44037;55.638;37.356;2023-02-18T10:19:21;98215.38;;;-4.31;68.25
58239;BME280;44037;55.638;37.356;2023-02-18T10:21:50;98210.69;;;-4.23;67.99
58239;BME280;44037;55.638;37.356;2023-02-18T10:24:26;98200.63;;;-4.22;68.63
58239;BME280;44037;55.638;37.356;2023-02-18T10:26:55;98205.91;;;-3.97;68.60
58239;BME280;44037;55.638;37.356;2023-02-18T10:29:23;98217.56;;;-3.81;68.71
58239;BME280;44037;55.638;37.356;2023-02-18T10:31:54;98221.03;;;-3.58;68.68
58239;BME280;44037;55.638;37.356;2023-02-18T10:34:34;98207.19;;;-3.26;68.24
58239;BME280;44037;55.638;37.356;2023-02-18T10:37:14;98183.28;;;-3.11;67.46
58239;BME280;44037;55.638;37.356;2023-02-18T10:39:55;98202.69;;;-3.12;67.48
58239;BME280;44037;55.638;37.356;2023-02-18T10:42:34;98182.34;;;-3.13;66.38
58239;BME280;44037;55.638;37.356;2023-02-18T10:45:14;98189.28;;;-3.30;65.02
58239;BME280;44037;55.638;37.356;2023-02-18T10:47:49;98182.25;;;-3.37;65.47
58239;BME280;44037;55.638;37.356;2023-02-18T10:50:26;98185.50;;;-3.40;65.35
58239;BME280;44037;55.638;37.356;2023-02-18T10:52:56;98160.28;;;-3.37;65.58
58239;BME280;44037;55.638;37.356;2023-02-18T10:55:35;98180.97;;;-3.28;66.23
58239;BME280;44037;55.638;37.356;2023-02-18T10:58:03;98166.97;;;-3.18;65.66
58239;BME280;44037;55.638;37.356;2023-02-18T11:00:34;98164.13;;;-3.26;64.60
58239;BME280;44037;55.638;37.356;2023-02-18T11:03:13;98170.44;;;-3.37;64.93
58239;BME280;44037;55.638;37.356;2023-02-18T11:05:42;98157.16;;;-3.31;65.46
58239;BME280;44037;55.638;37.356;2023-02-18T11:08:13;98157.28;;;-3.28;65.07
58239;BME280;44037;55.638;37.356;2023-02-18T11:10:45;98141.59;;;-3.19;65.39
58239;BME280;44037;55.638;37.356;2023-02-18T11:13:16;98151.09;;;-3.14;65.21
58239;BME280;44037;55.638;37.356;2023-02-18T11:15:58;98136.88;;;-3.10;64.59
58239;BME280;44037;55.638;37.356;2023-02-18T11:18:36;98145.09;;;-3.16;64.18
58239;BME280;44037;55.638;37.356;2023-02-18T11:21:17;98138.59;;;-3.09;64.84
58239;BME280;44037;55.638;37.356;2023-02-18T11:23:46;98136.19;;;-3.06;65.41
58239;BME280;44037;55.638;37.356;2023-02-18T11:26:16;98121.22;;;-3.00;64.50
58239;BME280;44037;55.638;37.356;2023-02-18T11:28:48;98135.91;;;-2.91;64.74
58239;BME280;44037;55.638;37.356;2023-02-18T11:31:20;98121.69;;;-2.87;64.55
58239;BME280;44037;55.638;37.356;2023-02-18T11:33:50;98115.88;;;-2.85;64.46
58239;BME280;44037;55.638;37.356;2023-02-18T11:36:21;98112.47;;;-2.85;64.24
58239;BME280;44037;55.638;37.356;2023-02-18T11:38:51;98102.31;;;-2.85;64.20
58239;BME280;44037;55.638;37.356;2023-02-18T11:41:29;98104.75;;;-2.88;64.44
58239;BME280;44037;55.638;37.356;2023-02-18T11:43:58;98099.44;;;-2.95;65.30
58239;BME280;44037;55.638;37.356;2023-02-18T11:46:26;98091.38;;;-3.07;64.74
58239;BME280;44037;55.638;37.356;2023-02-18T11:48:54;98090.84;;;-3.21;64.47
58239;BME280;44037;55.638;37.356;2023-02-18T11:51:24;98085.38;;;-3.32;64.75
58239;BME280;44037;55.638;37.356;2023-02-18T11:53:59;98075.69;;;-3.42;65.21
58239;BME280;44037;55.638;37.356;2023-02-18T11:56:31;98089.69;;;-3.50;65.64
58239;BME280;44037;55.638;37.356;2023-02-18T11:58:59;98076.72;;;-3.58;65.71
58239;BME280;44037;55.638;37.356;2023-02-18T12:01:33;98079.69;;;-3.68;65.79
58239;BME280;44037;55.638;37.356;2023-02-18T12:04:07;98087.84;;;-3.76;66.10
58239;BME280;44037;55.638;37.356;2023-02-18T12:06:38;98070.00;;;-3.79;66.01
58239;BME280;44037;55.638;37.356;2023-02-18T12:09:18;98072.22;;;-3.87;66.17
58239;BME280;44037;55.638;37.356;2023-02-18T12:11:51;98062.84;;;-3.89;66.34
58239;BME280;44037;55.638;37.356;2023-02-18T12:14:20;98061.16;;;-3.89;66.69
58239;BME280;44037;55.638;37.356;2023-02-18T12:17:01;98057.81;;;-3.88;66.45
58239;BME280;44037;55.638;37.356;2023-02-18T12:19:54;98050.63;;;-3.78;66.88
58239;BME280;44037;55.638;37.356;2023-02-18T12:22:31;98056.78;;;-3.72;66.52
58239;BME280;44037;55.638;37.356;2023-02-18T12:25:28;98059.38;;;-3.70;66.29
58239;BME280;44037;55.638;37.356;2023-02-18T12:28:14;98050.84;;;-3.72;66.05
58239;BME280;44037;55.638;37.356;2023-02-18T12:31:05;98055.78;;;-3.75;66.33
58239;BME280;44037;55.638;37.356;2023-02-18T12:33:47;98055.91;;;-3.72;66.75
58239;BME280;44037;55.638;37.356;2023-02-18T12:36:24;98052.59;;;-3.71;66.40
58239;BME280;44037;55.638;37.356;2023-02-18T12:39:02;98034.06;;;-3.70;66.58
58239;BME280;44037;55.638;37.356;2023-02-18T12:41:46;98037.44;;;-3.70;66.52
58239;BME280;44037;55.638;37.356;2023-02-18T12:44:31;98033.94;;;-3.73;66.34
58239;BME280;44037;55.638;37.356;2023-02-18T12:47:12;98043.94;;;-3.76;66.75
58239;BME280;44037;55.638;37.356;2023-02-18T12:49:57;98038.78;;;-3.79;66.69
58239;BME280;44037;55.638;37.356;2023-02-18T12:52:36;98015.50;;;-3.92;66.68
58239;BME280;44037;55.638;37.356;2023-02-18T12:55:25;98025.31;;;-3.99;66.58
58239;BME280;44037;55.638;37.356;2023-02-18T12:58:02;98037.78;;;-4.04;66.80
58239;BME280;44037;55.638;37.356;2023-02-18T13:04:00;98013.13;;;-4.08;67.94
58239;BME280;44037;55.638;37.356;2023-02-18T13:06:49;98017.25;;;-4.10;67.59
58239;BME280;44037;55.638;37.356;2023-02-18T13:09:26;98018.72;;;-4.16;67.99
58239;BME280;44037;55.638;37.356;2023-02-18T13:12:04;98003.31;;;-4.22;67.86
58239;BME280;44037;55.638;37.356;2023-02-18T13:14:40;98007.25;;;-4.28;68.03